• Join FlightAware (Why Join?)
  • Login
  • US Flag 
07:35AM EDT


 

Airport Tracker/Info


-or-


 

Live Flight TrackerFlight Track Log ✈ AWE3390 ✈ 14-May-2013 ✈ KRSW - KDCA

Flight Track Log - Related Links

Times and Time Zones

All times are in EDT time to prevent confusion due to time zone crossing. See the AWE3390 flight status page for this flight to view local times or setup timezone preferences in your user account.

Time Position Orientation Groundspeed Altitude Reporting Facility
EDT Latitude Longitude Course Direction KTS MPH feet Rate Location/Type
12:13PM 26.5942 -81.6747 339° North 234 269 3,300  Level Miami Center
12:14PM 26.9820 -81.7333 North  Level FlightAware Approximate
12:14PM 26.6550 -81.6586 13° North 252 290 6,900  Level Miami Center
12:15PM 27.0899 -81.7626 340° North  Level FlightAware Approximate
12:15PM 26.7236 -81.6731 349° North 258 297 9,600  Level Miami Center
12:16PM 27.1987 -81.7940 343° North  Level FlightAware Approximate
12:16PM 26.8042 -81.6925 348° North 277 319 10,600  Level Miami Center
12:17PM 27.3046 -81.8356 336° Northwest  Level FlightAware Approximate
12:17PM 26.8994 -81.7150 348° North 314 361 13,200  Level Miami Center
12:18PM 27.4113 -81.8691 339° North  Level FlightAware Approximate
12:18PM 26.9894 -81.7119 North 320 368 15,500  Level Miami Center
12:19PM 27.0861 -81.6903 11° North 333 383 17,600 1,920 Climbing Miami Center
12:20PM 27.1831 -81.6617 15° North 348 400 19,400 1,800 Climbing Miami Center
12:21PM 27.2861 -81.6381 12° North 364 419 21,200 1,800 Climbing Miami Center
12:22PM 27.3892 -81.6142 12° North 369 425 23,000 1,680 Climbing Miami Center
12:23PM 27.4861 -81.5878 14° North 375 432 24,600 1,500 Climbing Miami Center
12:24PM 27.5933 -81.5639 11° North 381 438 26,000 1,440 Climbing Miami Center
12:25PM 27.7153 -81.5361 11° North 397 457 27,500 1,200 Climbing Miami Center
12:26PM 27.8122 -81.5119 12° North 397 457 28,400 900 Climbing Miami Center
12:27PM 27.9383 -81.4842 11° North 397 457 29,400 1,080 Climbing Miami Center
12:28PM 28.0558 -81.4561 12° North 408 470 30,600 780 Climbing Miami Center
12:29PM 28.1717 -81.4281 12° North 415 478 31,000 180 Climbing Miami Center
12:30PM 28.2872 -81.3997 12° North 421 484 31,000  Level Miami Center
12:31PM 28.4175 -81.3742 10° North 435 501 31,000  Level Miami Center
12:32PM 28.5100 -81.3453 15° North 447 514 31,000  Level Jacksonville Center
12:33PM 28.6372 -81.3456 360° North 452 520 31,000  Level Jacksonville Center
12:34PM 28.7647 -81.3578 355° North 452 520 31,000  Level Jacksonville Center
12:35PM 28.8922 -81.3700 355° North 452 520 31,000  Level Jacksonville Center
12:36PM 29.0175 -81.3847 354° North 452 520 31,000  Level Jacksonville Center
12:37PM 29.1450 -81.3947 356° North 452 520 31,000  Level Jacksonville Center
12:38PM 29.2703 -81.4047 356° North 452 520 31,000  Level Jacksonville Center
12:39PM 29.3936 -81.4219 353° North 452 520 31,000  Level Jacksonville Center
12:40PM 29.5275 -81.4342 355° North 446 513 31,000  Level Jacksonville Center
12:41PM 29.6550 -81.4467 355° North 446 513 31,000  Level Jacksonville Center
12:42PM 29.7806 -81.4664 352° North 451 519 31,000  Level Jacksonville Center
12:43PM 29.8997 -81.5031 345° North 446 513 31,000  Level Jacksonville Center
12:44PM 30.0214 -81.5322 348° North 446 513 31,000  Level Jacksonville Center
12:45PM 30.1444 -81.5233 North 441 507 31,000  Level Jacksonville Center
12:46PM 30.2717 -81.5144 North 441 507 31,000  Level Jacksonville Center
12:47PM 30.3989 -81.5031 North 441 507 31,000  Level Jacksonville Center
12:48PM 30.5136 -81.4942 North 449 517 31,000  Level Jacksonville Center
12:49PM 30.6367 -81.4850 North 449 517 31,000  Level Jacksonville Center
12:50PM 30.7619 -81.4758 North 444 511 31,000  Level Jacksonville Center
12:51PM 30.8828 -81.4669 North 444 511 31,000  Level Jacksonville Center
12:52PM 31.0100 -81.4553 North 444 511 31,000  Level Jacksonville Center
12:53PM 31.1331 -81.4461 North 444 511 31,000  Level Jacksonville Center
12:54PM 31.2583 -81.4344 North 444 511 31,000  Level Jacksonville Center
12:55PM 31.3725 -81.3792 22° Northeast 434 499 31,000  Level Jacksonville Center
12:56PM 31.4947 -81.2942 31° Northeast 445 512 31,000  Level Jacksonville Center
12:57PM 31.5919 -81.2267 31° Northeast 454 522 31,000  Level Jacksonville Center
12:58PM 31.7097 -81.1392 32° Northeast 459 528 31,000  Level Jacksonville Center
12:59PM 31.8192 -81.0614 31° Northeast 451 519 31,000  Level Jacksonville Center
01:00PM 31.9183 -80.9933 30° Northeast 451 519 31,000  Level Jacksonville Center
01:01PM 32.0383 -80.9075 31° Northeast 451 519 31,000  Level Jacksonville Center
01:02PM 32.1353 -80.8417 30° Northeast 451 519 31,000  Level Jacksonville Center
01:03PM 32.2528 -80.7553 32° Northeast 451 519 31,000  Level Jacksonville Center
01:04PM 32.3497 -80.6817 33° Northeast 451 519 31,000  Level Jacksonville Center
01:05PM 32.4589 -80.6053 31° Northeast 451 519 31,000  Level Jacksonville Center
01:06PM 32.5642 -80.5286 32° Northeast 445 512 31,000  Level Jacksonville Center
01:07PM 32.6711 -80.4494 32° Northeast 445 512 31,000  Level Jacksonville Center
01:08PM 32.7803 -80.3725 31° Northeast 445 512 31,000  Level Jacksonville Center
01:09PM 32.8831 -80.2953 32° Northeast 445 512 31,000  Level Jacksonville Center
01:10PM 32.9900 -80.2178 31° Northeast 454 522 31,000  Level Jacksonville Center
01:11PM 33.0989 -80.1378 32° Northeast 454 522 31,000  Level Jacksonville Center
01:12PM 33.2158 -80.0497 32° Northeast 445 512 31,000  Level Jacksonville Center
01:13PM 33.3206 -79.9742 31° Northeast 445 512 31,000  Level Jacksonville Center
01:14PM 33.4253 -79.8961 32° Northeast 445 512 31,000  Level Jacksonville Center
01:15PM 33.5319 -79.8178 31° Northeast 445 512 31,000  Level Jacksonville Center
01:16PM 33.6342 -79.7394 33° Northeast 440 506 31,000  Level Jacksonville Center
01:17PM 33.7386 -79.6608 32° Northeast 440 506 31,000  Level Jacksonville Center
01:18PM 33.8453 -79.5819 32° Northeast 440 506 31,000  Level Jacksonville Center
01:19PM 33.9475 -79.5081 31° Northeast 440 506 31,000  Level Jacksonville Center
01:20PM 34.0517 -79.4264 33° Northeast 440 506 31,000  Level Jacksonville Center
01:22PM 34.2678 -79.2658 32° Northeast 431 496 31,000  Level Washington Center
01:23PM 34.3806 -79.1953 27° Northeast 439 505 31,000  Level Washington Center
01:24PM 34.4867 -79.1344 25° Northeast 434 499 31,000  Level Washington Center
01:25PM 34.5969 -79.0736 24° Northeast 434 499 31,000 -120 Level Washington Center
01:26PM 34.7050 -79.0100 26° Northeast 427 491 30,800 -360 Descending Washington Center
01:27PM 34.8092 -78.9486 26° Northeast 427 491 30,300 -420 Descending Washington Center
01:28PM 34.9131 -78.8872 26° Northeast 420 483 30,000 -180 Descending Washington Center
01:29PM 35.0211 -78.8283 24° Northeast 414 476 30,000  Level Washington Center
01:30PM 35.1292 -78.7639 26° Northeast 419 482 30,000  Level Washington Center
01:31PM 35.2394 -78.6997 25° Northeast 424 488 30,000  Level Washington Center
01:32PM 35.3369 -78.6422 26° Northeast 429 494 30,000  Level Washington Center
01:33PM 35.4492 -78.5728 27° Northeast 424 488 30,000  Level Washington Center
01:34PM 35.5486 -78.5150 25° Northeast 424 488 30,000  Level Washington Center
01:35PM 35.6567 -78.4525 25° Northeast 435 501 30,000  Level Washington Center
01:36PM 35.7603 -78.3897 26° Northeast 423 487 30,000  Level Washington Center
01:37PM 35.8639 -78.3294 25° Northeast 418 481 30,000  Level Washington Center
01:38PM 35.9697 -78.2664 26° Northeast 413 475 30,000 -300 Level Washington Center
01:39PM 36.0711 -78.2056 26° Northeast 413 475 29,500 -780 Descending Washington Center
01:40PM 36.1728 -78.1419 27° Northeast 407 468 28,500 -1,020 Descending Washington Center
01:41PM 36.2719 -78.0833 25° Northeast 401 461 27,500 -780 Descending Washington Center
01:42PM 36.3692 -78.0244 26° Northeast 396 456 27,000 -300 Descending Washington Center
01:43PM 36.4600 -77.9681 27° Northeast 377 434 27,000  Level Washington Center
01:44PM 36.5508 -77.9086 28° Northeast 366 421 27,000 -300 Level Washington Center
01:45PM 36.6458 -77.8544 25° Northeast 366 421 26,400 -1,320 Descending Washington Center
01:46PM 36.7367 -77.7975 27° Northeast 366 421 24,500 -1,740 Descending Washington Center
01:47PM 36.8294 -77.7406 26° Northeast 366 421 23,000 -900 Descending Washington Center
01:48PM 36.9161 -77.6858 27° Northeast 361 415 22,800 -360 Descending Washington Center
01:49PM 37.0044 -77.6308 26° Northeast 348 400 22,300 -420 Descending Washington Center
01:50PM 37.0953 -77.5733 27° Northeast 348 400 22,000 -180 Descending Washington Center
01:51PM 37.1878 -77.5183 25° Northeast 354 407 22,000  Level Washington Center
01:52PM 37.2806 -77.4581 27° Northeast 359 413 22,000  Level Washington Center
01:53PM 37.3775 -77.4003 25° Northeast 369 425 22,000  Level Washington Center
01:54PM 37.4744 -77.3400 26° Northeast 374 430 22,000 -120 Level Washington Center
01:55PM 37.5644 -77.3078 16° North 359 413 21,800 -660 Descending Washington Center
01:56PM 37.6439 -77.2914 North 316 364 20,800 -1,320 Descending Washington Center
01:57PM 37.7236 -77.2747 North 292 336 19,200 -1,380 Descending Washington Center
01:58PM 37.8008 -77.2581 10° North 286 329 18,100 -1,200 Descending Washington Center
01:59PM 37.8783 -77.2414 10° North 280 322 16,800 -1,440 Descending Washington Center
02:00PM 37.9536 -77.2272 North 280 322 15,300 -1,620 Descending Washington Center
02:01PM 38.0350 -77.2131 North 275 316 13,700 -1,560 Descending Washington Center
02:02PM 38.1103 -77.1964 10° North 275 316 12,300 -1,440 Descending Washington Center
02:03PM 38.1836 -77.1819 North 275 316 10,800 -1,200 Descending Washington Center
02:04PM 38.2506 -77.1675 10° North 275 316 10,000 -840 Descending Washington Center
02:05PM 38.3319 -77.1508 North 275 316 9,200 -1,200 Descending Washington Center
02:06PM 38.3869 -77.0961 38° Northeast 255 293 7,600 -1,140 Descending Washington Center
02:07PM 38.4253 -77.0175 58° Northeast 240 276 7,000 -720 Descending Washington Center
02:08PM 38.4861 -77.0081 North 224 258 6,200 -1,200 Descending Washington Center
02:09PM 38.5486 -77.0119 357° North 211 243 4,700 -1,140 Descending Washington Center
02:10PM 38.6089 -77.0183 355° North 211 243 4,000 -540 Descending Washington Center
02:10PM 38.6333 -77.0167 North 216 249 4,000 -780 Level Potomac TRACON
02:11PM 38.6833 -77.0167 360° North 218 251 3,100 -1,020 Descending Potomac TRACON